Antigo, WI

8:16 PM CST on December 15, 2019 (GMT -0600)
Langlade County

Weather History for KAIG - November, 2019

Change the Weather History Date:

Saturday, November 16, 2019

  Actual Average Record
Temperature  
Mean Temperature 27 °F -  
Max Temperature 34 °F 39 °F 70 °F (1953)
Min Temperature 20 °F 22 °F 8 °F (2014)
Degree Days  
Heating Degree Days 38    
Moisture  
Dew Point 24 °F    
Average Humidity 87    
Maximum Humidity 96    
Minimum Humidity 74    
Precipitation  
Precipitation 0.00 in - - ()
Sea Level Pressure  
Sea Level Pressure 30.27 in    
Wind  
Wind Speed 9 mph ()    
Max Wind Speed 15 mph    
Max Gust Speed 22 mph    
Visibility 9.9 miles    
Events      
Averages and records for this station are not official NWS values.
T = Trace of Precipitation, MM = Missing Value Source: Averaged Metar Reports

Daily Weather History Graph

Daily Weather History Graph

Search for Another Location

Airport or City:

Astronomy

Nov. 16, 2019 Rise Set
Actual Time 6:55 AM CST 4:26 PM CST
Civil Twilight 6:23 AM CST 4:58 PM CST
Nautical Twilight 5:47 AM CST 5:33 PM CST
Astronomical Twilight 5:13 AM CST 6:08 PM CST
Moon 7:54 PM CST 10:54 AM CST
Length of Visible Light 10h 34m
Length of Day
9h 30m
Waning Gibbous, 82% of the Moon is Illuminated
Nov 16
Waning Gibbous
Nov 19
Last Quarter
Nov 26
New
Dec 4
First Quarter
Dec 11
Full

Hourly Weather History & Observations

Time (CST) Temp. Windchill Dew Point Humidity Pressure Visibility Wind Dir Wind Speed Gust Speed Precip Events Conditions
12:35 AM 20.5 °F 9.2 °F 18.5 °F 92% 30.40 in 10.0 mi ESE 10.4 mph - N/A   Overcast
12:55 AM 20.3 °F 12.5 °F 18.3 °F 92% 30.40 in 10.0 mi ESE 5.8 mph - N/A   Overcast
1:15 AM 20.3 °F 11.5 °F 18.1 °F 91% 30.40 in 10.0 mi ESE 6.9 mph - N/A   Overcast
1:35 AM 20.3 °F 11.5 °F 18.1 °F 91% 30.40 in 10.0 mi ESE 6.9 mph - N/A   Overcast
1:55 AM 20.3 °F 10.6 °F 18.0 °F 91% 30.39 in 10.0 mi ESE 8.1 mph - N/A   Overcast
2:15 AM 20.3 °F 12.5 °F 17.8 °F 90% 30.39 in 10.0 mi ESE 5.8 mph - N/A   Overcast
2:55 AM 20.1 °F 12.3 °F 18.0 °F 91% 30.39 in 10.0 mi SE 5.8 mph - N/A   Clear
3:15 AM 20.3 °F 11.5 °F 18.3 °F 92% 30.39 in 10.0 mi ESE 6.9 mph - N/A   Clear
3:35 AM 20.3 °F 12.5 °F 18.5 °F 93% 30.39 in 10.0 mi SE 5.8 mph - N/A   Clear
3:55 AM 20.3 °F 12.5 °F 18.5 °F 93% 30.39 in 10.0 mi SE 5.8 mph - N/A   Scattered Clouds
4:15 AM 21.0 °F 12.4 °F 19.0 °F 92% 30.39 in 10.0 mi ESE 6.9 mph - N/A   Mostly Cloudy
4:35 AM 21.2 °F 11.7 °F 19.4 °F 93% 30.39 in 10.0 mi SE 8.1 mph - N/A   Overcast
4:55 AM 21.2 °F 12.6 °F 19.4 °F 93% 30.39 in 10.0 mi SE 6.9 mph - N/A   Overcast
5:15 AM 21.6 °F 11.3 °F 19.8 °F 93% 30.38 in 10.0 mi SE 9.2 mph - N/A   Overcast
5:35 AM 21.9 °F 11.0 °F 20.1 °F 93% 30.38 in 10.0 mi SE 10.4 mph - N/A   Overcast
5:55 AM 22.5 °F 11.7 °F 20.3 °F 91% 30.38 in 10.0 mi SE 10.4 mph - N/A   Overcast
6:15 AM 22.5 °F 11.7 °F 20.3 °F 91% 30.38 in 10.0 mi SSE 10.4 mph - N/A   Overcast
6:35 AM 22.5 °F 12.4 °F 20.3 °F 91% 30.38 in 10.0 mi SSE 9.2 mph - N/A   Overcast
6:55 AM 23.0 °F 13.1 °F 20.8 °F 91% 30.38 in 10.0 mi SSE 9.2 mph - N/A   Overcast
7:15 AM 23.0 °F 13.1 °F 21.2 °F 93% 30.38 in 10.0 mi SSE 9.2 mph - N/A   Overcast
7:55 AM 23.7 °F 13.3 °F 21.4 °F 91% 30.37 in 10.0 mi SE 10.4 mph - N/A   Scattered Clouds
8:15 AM 25.0 °F 15.5 °F 22.1 °F 89% 30.37 in 10.0 mi SE 9.2 mph - N/A   Scattered Clouds
8:35 AM 25.5 °F 16.2 °F 22.5 °F 88% 30.37 in 10.0 mi SSE 9.2 mph - N/A   Mostly Cloudy
9:35 AM 27.7 °F 17.1 °F 23.5 °F 84% 30.36 in 10.0 mi SSE 12.7 mph - N/A   Overcast
9:55 AM 28.4 °F 18.0 °F 23.9 °F 83% 30.36 in 10.0 mi SSE 12.7 mph - N/A   Overcast
10:15 AM 29.3 °F 19.6 °F 24.8 °F 83% 30.35 in 10.0 mi SSE 11.5 mph - N/A   Overcast
10:35 AM 30.2 °F 19.3 °F 25.2 °F 82% 30.35 in 10.0 mi SSE 15.0 mph - N/A   Overcast
10:55 AM 31.1 °F 21.9 °F 25.3 °F 79% 30.33 in 10.0 mi South 11.5 mph 21.9 mph N/A   Overcast
11:15 AM 31.1 °F 20.5 °F 25.3 °F 79% 30.32 in 10.0 mi SSE 15.0 mph - N/A   Overcast
11:35 AM 32.2 °F 21.8 °F 26.1 °F 78% 30.32 in 10.0 mi South 15.0 mph 18.4 mph N/A   Overcast
11:55 AM 31.8 °F 22.8 °F 25.7 °F 78% 30.31 in 10.0 mi South 11.5 mph - N/A   Overcast
12:15 PM 32.5 °F 23.2 °F 25.9 °F 76% 30.29 in 10.0 mi SSE 12.7 mph - N/A   Overcast
12:35 PM 32.9 °F 24.1 °F 26.4 °F 77% 30.27 in 10.0 mi SSE 11.5 mph - N/A   Mostly Cloudy
12:55 PM 32.9 °F 25.3 °F 26.4 °F 77% 30.27 in 10.0 mi SSE 9.2 mph 18.4 mph N/A   Mostly Cloudy
1:15 PM 33.1 °F 23.9 °F 26.4 °F 77% 30.26 in 10.0 mi SSE 12.7 mph - N/A   Scattered Clouds
1:35 PM 34.0 °F 25.5 °F 26.6 °F 74% 30.26 in 10.0 mi SSE 11.5 mph - N/A   Scattered Clouds
1:55 PM 33.1 °F 23.4 °F 26.2 °F 76% 30.25 in 10.0 mi SSE 13.8 mph - N/A   Scattered Clouds
2:15 PM 33.3 °F 24.6 °F 26.6 °F 77% 30.24 in 10.0 mi SE 11.5 mph - N/A   Scattered Clouds
2:35 PM 33.4 °F 24.3 °F 26.6 °F 76% 30.23 in 10.0 mi SSE 12.7 mph - N/A   Clear
2:55 PM 32.9 °F 22.8 °F 26.6 °F 78% 30.22 in 10.0 mi SE 15.0 mph - N/A   Clear
3:15 PM 32.9 °F 23.7 °F 27.0 °F 79% 30.21 in 10.0 mi SSE 12.7 mph - N/A   Scattered Clouds
3:35 PM 33.3 °F 25.1 °F 27.1 °F 78% 30.21 in 10.0 mi SE 10.4 mph - N/A   Scattered Clouds
3:55 PM 32.5 °F 22.3 °F 27.3 °F 81% 30.20 in 10.0 mi SSE 15.0 mph - N/A   Clear
4:15 PM 31.8 °F 21.8 °F 27.1 °F 83% 30.18 in 10.0 mi SE 13.8 mph 17.3 mph N/A   Clear
4:35 PM 31.1 °F 22.4 °F 27.0 °F 85% 30.18 in 10.0 mi SE 10.4 mph - N/A   Clear
4:55 PM 30.9 °F 22.2 °F 27.0 °F 85% 30.18 in 10.0 mi SSE 10.4 mph 16.1 mph N/A   Clear
5:15 PM 30.9 °F 22.8 °F 27.3 °F 86% 30.18 in 10.0 mi SE 9.2 mph - N/A   Clear
5:35 PM 31.1 °F 22.4 °F 27.3 °F 86% 30.18 in 10.0 mi SSE 10.4 mph - N/A   Clear
5:55 PM 30.9 °F 21.2 °F 27.3 °F 86% 30.18 in 10.0 mi SSE 12.7 mph 16.1 mph N/A   Clear
6:15 PM 30.9 °F 21.7 °F 27.3 °F 86% 30.17 in 10.0 mi SSE 11.5 mph - N/A   Clear
6:35 PM 30.6 °F 20.2 °F 27.3 °F 88% 30.16 in 10.0 mi SSE 13.8 mph 17.3 mph N/A   Scattered Clouds
6:55 PM 30.6 °F 21.2 °F 27.5 °F 88% 30.16 in 10.0 mi SSE 11.5 mph - N/A   Mostly Cloudy
7:35 PM 30.2 °F 19.8 °F 27.9 °F 91% 30.16 in 10.0 mi SSE 13.8 mph 17.3 mph N/A   Mostly Cloudy
7:55 PM 29.5 °F 19.3 °F 27.5 °F 92% 30.15 in 10.0 mi SSE 12.7 mph - N/A   Overcast
8:15 PM 29.8 °F 20.3 °F 28.0 °F 93% 30.15 in 10.0 mi SSE 11.5 mph - N/A   Overcast
8:35 PM 29.7 °F 20.1 °F 28.0 °F 94% 30.14 in 10.0 mi SSE 11.5 mph 16.1 mph N/A   Overcast
8:55 PM 29.8 °F 20.9 °F 28.2 °F 94% 30.15 in 10.0 mi SSE 10.4 mph - N/A   Overcast
9:15 PM 29.8 °F 20.3 °F 28.2 °F 94% 30.14 in 10.0 mi SSE 11.5 mph - N/A   Overcast
9:35 PM 29.7 °F 19.6 °F 28.2 °F 94% 30.14 in 7.0 mi SSE 12.7 mph - N/A   Overcast
9:55 PM 29.1 °F 19.4 °F 27.9 °F 95% 30.13 in 7.0 mi SSE 11.5 mph - N/A   Overcast
10:15 PM 29.1 °F 19.4 °F 28.0 °F 96% 30.12 in 7.0 mi SSE 11.5 mph - N/A   Overcast
10:35 PM 29.1 °F 18.4 °F 27.5 °F 94% 30.11 in 10.0 mi SSE 13.8 mph 19.6 mph N/A   Scattered Clouds
10:55 PM 29.3 °F 19.6 °F 27.3 °F 92% 30.11 in 10.0 mi SSE 11.5 mph 16.1 mph N/A   Scattered Clouds
11:15 PM 29.7 °F 19.1 °F 26.8 °F 89% 30.10 in 10.0 mi South 13.8 mph - N/A   Clear
11:35 PM 30.0 °F 19.5 °F 26.4 °F 86% 30.10 in 10.0 mi South 13.8 mph - N/A   Mostly Cloudy
11:55 PM 30.0 °F 20.0 °F 26.2 °F 86% 30.10 in 10.0 mi South 12.7 mph 18.4 mph N/A   Overcast